createdAt,value
2018-04-17T00:01:04.322Z,50.17
2018-04-17T00:03:30.665Z,50.33
2018-04-17T00:05:56.903Z,45.73
2018-04-17T00:08:23.895Z,49.03
2018-04-17T00:10:50.167Z,43.10
2018-04-17T00:13:17.185Z,48.83
2018-04-17T00:15:43.522Z,43.90
2018-04-17T00:18:09.762Z,42.50
2018-04-17T00:20:36.059Z,50.70
2018-04-17T00:23:02.306Z,44.97
2018-04-17T00:25:28.570Z,47.90
2018-04-17T00:27:54.811Z,51.17
2018-04-17T00:30:21.075Z,50.47
2018-04-17T00:32:47.851Z,56.60
2018-04-17T00:35:14.202Z,49.63
2018-04-17T00:37:40.443Z,53.67
2018-04-17T00:40:06.738Z,60.17
2018-04-17T00:42:32.988Z,75.57
2018-04-17T00:44:59.255Z,69.77
2018-04-17T00:47:26.247Z,70.90
2018-04-17T00:49:52.515Z,81.53
2018-04-17T00:52:18.754Z,71.20
2018-04-17T00:54:46.067Z,90.90
2018-04-17T00:57:12.314Z,79.80
2018-04-17T00:59:39.471Z,77.70
2018-04-17T01:02:05.751Z,72.40
2018-04-17T01:04:32.694Z,82.10
2018-04-17T01:06:59.483Z,76.87
2018-04-17T01:09:26.226Z,74.20
2018-04-17T01:11:54.098Z,77.17
2018-04-17T01:14:21.449Z,76.70
2018-04-17T01:16:48.598Z,74.70
2018-04-17T01:19:15.442Z,83.40
2018-04-17T01:21:41.750Z,84.93
2018-04-17T01:24:08.107Z,86.33
2018-04-17T01:26:35.344Z,90.87
2018-04-17T01:29:01.595Z,89.23
2018-04-17T01:31:29.103Z,97.97
2018-04-17T01:33:55.343Z,98.63
2018-04-17T01:36:21.602Z,109.53
2018-04-17T01:38:47.846Z,96.53
2018-04-17T01:41:14.530Z,108.67
2018-04-17T01:43:40.805Z,120.20
2018-04-17T01:46:07.558Z,110.00
2018-04-17T01:48:33.802Z,106.20
2018-04-17T01:51:01.061Z,102.57
2018-04-17T01:53:28.070Z,101.90
2018-04-17T01:55:54.342Z,115.37
2018-04-17T01:58:21.326Z,103.77
2018-04-17T02:00:48.219Z,106.80
2018-04-17T02:03:15.214Z,113.30
2018-04-17T02:05:41.550Z,82.07
2018-04-17T02:08:07.849Z,100.67
2018-04-17T02:10:35.789Z,102.13
2018-04-17T02:13:02.034Z,99.17
2018-04-17T02:15:30.500Z,75.43
2018-04-17T02:17:56.751Z,84.90
2018-04-17T02:20:23.834Z,79.07
2018-04-17T02:22:50.099Z,94.30
2018-04-17T02:25:16.918Z,70.10
2018-04-17T02:27:43.165Z,76.90
2018-04-17T02:30:16.983Z,83.03
2018-04-17T02:32:43.226Z,83.93
2018-04-17T02:35:09.475Z,85.33
2018-04-17T02:37:36.487Z,81.03
2018-04-17T02:40:02.757Z,88.23
2018-04-17T02:42:29.031Z,83.63
2018-04-17T02:44:55.275Z,98.10
2018-04-17T02:47:21.552Z,92.20
2018-04-17T02:49:47.794Z,78.37
2018-04-17T02:52:14.070Z,69.60
2018-04-17T02:54:41.795Z,71.83
2018-04-17T02:57:08.071Z,67.53
2018-04-17T02:59:34.315Z,91.07
2018-04-17T03:02:01.345Z,78.17
2018-04-17T03:04:27.638Z,83.90
2018-04-17T03:06:54.465Z,76.40
2018-04-17T03:09:20.707Z,87.50
2018-04-17T03:11:47.928Z,75.53
2018-04-17T03:14:14.940Z,79.53
2018-04-17T03:16:48.639Z,88.00
2018-04-17T03:19:14.886Z,93.13
2018-04-17T03:21:41.179Z,86.40
2018-04-17T03:24:07.427Z,97.33
2018-04-17T03:26:33.695Z,94.43
2018-04-17T03:29:00.787Z,91.90
2018-04-17T03:31:27.062Z,82.80
2018-04-17T03:33:53.862Z,86.80
2018-04-17T03:36:21.079Z,83.80
2018-04-17T03:38:47.331Z,82.00
2018-04-17T03:41:13.600Z,84.10
2018-04-17T03:43:39.838Z,76.37
2018-04-17T03:46:06.847Z,68.33
2018-04-17T03:48:33.086Z,76.50
2018-04-17T03:50:59.358Z,54.90
2018-04-17T03:53:26.342Z,60.63
2018-04-17T03:55:52.620Z,67.60
2018-04-17T03:58:19.810Z,67.67
2018-04-17T04:00:46.100Z,60.60
2018-04-17T04:03:12.343Z,62.83
2018-04-17T04:05:39.354Z,54.87
2018-04-17T04:08:05.604Z,59.90
2018-04-17T04:10:31.898Z,56.90
2018-04-17T04:12:58.158Z,45.00
2018-04-17T04:15:25.203Z,49.57
2018-04-17T04:18:04.007Z,56.13
2018-04-17T04:20:42.663Z,40.40
2018-04-17T04:23:21.297Z,48.30
2018-04-17T04:26:00.915Z,39.90
2018-04-17T04:28:27.747Z,41.77
2018-04-17T04:30:54.034Z,39.37
2018-04-17T04:33:20.626Z,40.43
2018-04-17T04:35:46.961Z,42.27
2018-04-17T04:38:13.289Z,37.10
2018-04-17T04:40:39.554Z,31.60
2018-04-17T04:43:06.538Z,43.50
2018-04-17T04:45:33.502Z,33.20
2018-04-17T04:47:59.742Z,38.00
2018-04-17T04:50:26.010Z,33.77
2018-04-17T04:52:52.993Z,35.80
2018-04-17T04:55:19.239Z,26.90
2018-04-17T04:57:45.563Z,37.80
2018-04-17T05:00:11.791Z,34.93
2018-04-17T05:02:38.647Z,33.63
2018-04-17T05:05:05.670Z,34.63
2018-04-17T05:07:31.913Z,36.40
2018-04-17T05:09:58.262Z,33.60
2018-04-17T05:12:24.579Z,31.73
2018-04-17T05:14:50.851Z,24.93
2018-04-17T05:17:17.847Z,27.90
2018-04-17T05:19:44.186Z,27.83
2018-04-17T05:22:10.454Z,29.77
2018-04-17T05:24:37.519Z,39.97
2018-04-17T05:27:03.768Z,34.63
2018-04-17T05:29:30.010Z,29.63
2018-04-17T05:31:56.834Z,26.63
2018-04-17T05:34:23.078Z,28.97
2018-04-17T05:36:49.350Z,25.67
2018-04-17T05:39:15.590Z,25.47
2018-04-17T05:41:42.617Z,28.77
2018-04-17T05:44:08.862Z,24.27
2018-04-17T05:46:35.125Z,26.07
2018-04-17T05:49:01.366Z,22.30
2018-04-17T05:51:27.593Z,23.50
2018-04-17T05:53:53.791Z,23.57
2018-04-17T05:56:20.752Z,20.77
2018-04-17T05:58:47.705Z,18.93
2018-04-17T06:01:13.935Z,24.83
2018-04-17T06:03:40.195Z,20.53
2018-04-17T06:06:06.465Z,26.80
2018-04-17T06:08:33.399Z,17.40
2018-04-17T06:10:59.615Z,18.43
2018-04-17T06:13:25.807Z,22.10
2018-04-17T06:15:52.027Z,14.43
2018-04-17T06:18:18.222Z,14.70
2018-04-17T06:20:44.483Z,17.37
2018-04-17T06:23:10.703Z,13.33
2018-04-17T06:25:37.631Z,16.20
2018-04-17T06:28:03.848Z,12.33
2018-04-17T06:30:30.043Z,12.07
2018-04-17T06:32:56.250Z,13.37
2018-04-17T06:35:22.450Z,10.17
2018-04-17T06:37:49.427Z,11.13
2018-04-17T06:40:15.611Z,10.23
2018-04-17T06:42:41.826Z,10.07
2018-04-17T06:45:08.028Z,11.23
2018-04-17T06:47:34.294Z,14.73
2018-04-17T06:50:00.492Z,15.87
2018-04-17T06:52:26.691Z,10.57
2018-04-17T06:54:52.891Z,7.80
2018-04-17T06:57:19.131Z,7.17
2018-04-17T06:59:46.067Z,8.10
2018-04-17T07:02:12.313Z,10.07
2018-04-17T07:04:39.260Z,7.57
2018-04-17T07:07:06.191Z,7.03
2018-04-17T07:09:32.447Z,8.20
2018-04-17T07:11:58.639Z,10.50
2018-04-17T07:14:25.610Z,9.30
2018-04-17T07:16:52.551Z,8.83
2018-04-17T07:19:19.555Z,5.13
2018-04-17T07:21:45.747Z,5.50
2018-04-17T07:24:11.976Z,7.20
2018-04-17T07:26:38.162Z,9.93
2018-04-17T07:29:04.476Z,10.77
2018-04-17T07:31:30.672Z,16.43
2018-04-17T07:33:56.899Z,10.03
2018-04-17T07:36:23.111Z,10.20
2018-04-17T07:38:50.043Z,4.03
2018-04-17T07:41:17.014Z,5.37
2018-04-17T07:43:43.203Z,7.30
2018-04-17T07:46:09.415Z,7.63
2018-04-17T07:48:47.824Z,7.50
2018-04-17T07:51:14.111Z,9.07
2018-04-17T07:53:40.307Z,11.10
2018-04-17T07:56:06.523Z,10.70
2018-04-17T07:58:32.712Z,10.13
2018-04-17T08:00:58.927Z,3.97
2018-04-17T08:03:25.119Z,8.67
2018-04-17T08:05:51.333Z,6.40
2018-04-17T08:08:17.530Z,6.33
2018-04-17T08:10:43.771Z,10.27
2018-04-17T08:13:09.963Z,8.50
2018-04-17T08:15:36.918Z,8.37
2018-04-17T08:18:03.148Z,7.83
2018-04-17T08:20:29.383Z,9.00
2018-04-17T08:22:55.579Z,8.57
2018-04-17T08:25:22.551Z,6.23
2018-04-17T08:27:48.740Z,8.20
2018-04-17T08:30:14.960Z,5.30
2018-04-17T08:32:41.156Z,5.27
2018-04-17T08:35:07.376Z,6.67
2018-04-17T08:37:33.571Z,9.87
2018-04-17T08:40:00.723Z,9.23
2018-04-17T08:42:27.660Z,11.97
2018-04-17T08:44:53.846Z,11.90
2018-04-17T08:47:20.068Z,11.70
2018-04-17T08:49:46.258Z,14.10
2018-04-17T08:52:13.214Z,9.00
2018-04-17T08:54:39.407Z,10.70
2018-04-17T08:57:05.628Z,10.83
2018-04-17T08:59:31.829Z,10.40
2018-04-17T09:01:58.066Z,13.17
2018-04-17T09:04:24.314Z,12.00
2018-04-17T09:06:50.530Z,12.47
2018-04-17T09:09:17.057Z,15.23
2018-04-17T09:11:43.282Z,11.67
2018-04-17T09:14:09.475Z,12.57
2018-04-17T09:16:35.686Z,15.70
2018-04-17T09:19:02.203Z,16.67
2018-04-17T09:21:28.430Z,12.57
2018-04-17T09:23:54.642Z,11.73
2018-04-17T09:26:20.868Z,12.33
2018-04-17T09:28:47.062Z,11.80
2018-04-17T09:31:13.299Z,13.27
2018-04-17T09:33:39.487Z,10.90
2018-04-17T09:36:05.766Z,9.40
2018-04-17T09:38:32.659Z,7.83
2018-04-17T09:41:00.612Z,12.47
2018-04-17T09:43:26.794Z,11.23
2018-04-17T09:45:52.987Z,15.67
2018-04-17T09:48:19.201Z,12.70
2018-04-17T09:50:45.399Z,10.90
2018-04-17T09:53:11.615Z,15.07
2018-04-17T09:55:37.830Z,9.70
2018-04-17T09:58:04.050Z,11.90
2018-04-17T10:00:36.982Z,14.63
2018-04-17T10:03:03.511Z,10.27
2018-04-17T10:05:29.698Z,11.80
2018-04-17T10:07:56.651Z,10.33
2018-04-17T10:10:23.587Z,11.80
2018-04-17T10:12:50.559Z,13.43
2018-04-17T10:15:16.747Z,15.00
2018-04-17T10:17:44.444Z,10.87
2018-04-17T10:20:10.659Z,9.33
2018-04-17T10:22:37.658Z,16.27
2018-04-17T10:25:03.850Z,11.63
2018-04-17T10:27:30.079Z,13.57
2018-04-17T10:29:56.272Z,14.13
2018-04-17T10:32:22.782Z,14.47
2018-04-17T10:34:48.966Z,11.50
2018-04-17T10:37:15.939Z,14.10
2018-04-17T10:39:42.157Z,11.47
2018-04-17T10:42:08.416Z,15.60
2018-04-17T10:44:34.616Z,12.97
2018-04-17T10:47:00.858Z,17.13
2018-04-17T10:49:27.051Z,16.83
2018-04-17T10:51:54.015Z,14.30
2018-04-17T10:54:20.204Z,10.10
2018-04-17T10:56:46.427Z,11.57
2018-04-17T10:59:12.619Z,14.50
2018-04-17T11:01:38.879Z,12.10
2018-04-17T11:04:05.119Z,16.23
2018-04-17T11:06:31.299Z,14.20
2018-04-17T11:08:57.515Z,13.23
2018-04-17T11:11:23.710Z,11.00
2018-04-17T11:13:49.943Z,16.53
2018-04-17T11:16:16.876Z,14.83
2018-04-17T11:18:43.855Z,15.60
2018-04-17T11:21:10.813Z,18.37
2018-04-17T11:23:37.043Z,14.27
2018-04-17T11:26:03.234Z,17.20
2018-04-17T11:28:29.510Z,12.10
2018-04-17T11:30:55.699Z,12.40
2018-04-17T11:33:22.655Z,17.47
2018-04-17T11:35:49.586Z,16.67
2018-04-17T11:38:15.815Z,13.67
2018-04-17T11:40:42.760Z,17.73
2018-04-17T11:43:09.731Z,19.57
2018-04-17T11:45:35.918Z,11.67
2018-04-17T11:48:02.136Z,17.23
2018-04-17T11:50:28.327Z,13.13
2018-04-17T11:52:54.548Z,13.90
2018-04-17T11:55:20.740Z,10.20
2018-04-17T11:57:46.954Z,10.87
2018-04-17T12:00:13.150Z,12.30
2018-04-17T12:02:39.354Z,11.00
2018-04-17T12:05:06.315Z,11.37
2018-04-17T12:07:32.534Z,16.27
2018-04-17T12:09:58.732Z,14.10
2018-04-17T12:12:24.947Z,17.70
2018-04-17T12:14:51.134Z,21.57
2018-04-17T12:17:17.364Z,13.30
2018-04-17T12:19:43.636Z,17.83
2018-04-17T12:22:09.831Z,19.70
2018-04-17T12:24:36.034Z,15.83
2018-04-17T12:27:02.223Z,16.93
2018-04-17T12:29:28.434Z,16.83
2018-04-17T12:31:54.642Z,15.27
2018-04-17T12:34:20.855Z,14.73
2018-04-17T12:36:47.042Z,12.50
2018-04-17T12:39:13.255Z,12.67
2018-04-17T12:41:39.448Z,13.83
2018-04-17T12:44:05.659Z,13.10
2018-04-17T12:46:31.858Z,11.27
2018-04-17T12:48:58.066Z,11.03
2018-04-17T12:51:24.255Z,13.83
2018-04-17T12:53:50.463Z,12.53
2018-04-17T12:56:17.448Z,11.80
2018-04-17T12:58:43.666Z,14.77
2018-04-17T13:01:09.855Z,12.10
2018-04-17T13:03:36.818Z,12.93
2018-04-17T13:06:03.742Z,14.60
2018-04-17T13:08:29.931Z,15.47
2018-04-17T13:10:56.147Z,19.63
2018-04-17T13:13:22.339Z,11.97
2018-04-17T13:15:49.326Z,32.50
2018-04-17T13:18:15.523Z,11.43
2018-04-17T13:20:42.507Z,11.90
2018-04-17T13:23:08.691Z,12.90
2018-04-17T13:25:35.647Z,20.70
2018-04-17T13:28:02.575Z,13.27
2018-04-17T13:30:28.787Z,19.60
2018-04-17T13:32:54.979Z,12.97
2018-04-17T13:35:21.185Z,10.90
2018-04-17T13:37:47.378Z,16.77
2018-04-17T13:40:14.339Z,16.03
2018-04-17T13:42:41.291Z,12.07
2018-04-17T13:45:08.247Z,14.03
2018-04-17T13:47:35.180Z,13.90
2018-04-17T13:50:02.145Z,17.20
2018-04-17T13:52:28.339Z,14.77
2018-04-17T13:54:54.556Z,13.33
2018-04-17T13:57:20.807Z,20.10
2018-04-17T13:59:47.018Z,11.57
2018-04-17T14:02:13.207Z,12.43
2018-04-17T14:04:39.420Z,13.50
2018-04-17T14:07:05.619Z,9.93
2018-04-17T14:09:32.027Z,14.90
2018-04-17T14:11:58.219Z,13.60
2018-04-17T14:14:24.411Z,11.40
2018-04-17T14:16:51.371Z,15.60
2018-04-17T14:19:18.307Z,14.27
2018-04-17T14:21:45.283Z,11.83
2018-04-17T14:24:11.503Z,14.10
2018-04-17T14:26:37.715Z,13.43
2018-04-17T14:29:04.655Z,13.70
2018-04-17T14:31:31.631Z,16.73
2018-04-17T14:33:57.828Z,13.43
2018-04-17T14:36:24.779Z,15.80
2018-04-17T14:38:51.714Z,11.70
2018-04-17T14:41:18.690Z,13.10
2018-04-17T14:43:44.882Z,14.13
2018-04-17T14:46:11.087Z,12.00
2018-04-17T14:48:37.298Z,10.00
2018-04-17T14:51:03.517Z,13.90
2018-04-17T14:53:29.698Z,11.67
2018-04-17T14:55:56.012Z,10.57
2018-04-17T14:58:22.267Z,13.37
2018-04-17T15:00:48.903Z,12.27
2018-04-17T15:03:15.095Z,10.73
2018-04-17T15:05:41.298Z,11.37
2018-04-17T15:08:07.507Z,11.50
2018-04-17T15:10:34.443Z,16.37
2018-04-17T15:13:01.399Z,13.53
2018-04-17T15:15:28.329Z,15.23
2018-04-17T15:17:54.547Z,13.53
2018-04-17T15:20:20.756Z,12.93
2018-04-17T15:22:46.966Z,15.83
2018-04-17T15:25:13.155Z,16.13
2018-04-17T15:27:40.108Z,12.53
2018-04-17T15:30:07.104Z,15.13
2018-04-17T15:32:33.324Z,11.40
2018-04-17T15:34:59.523Z,14.57
2018-04-17T15:37:25.737Z,9.97
2018-04-17T15:39:52.666Z,16.40
2018-04-17T15:42:18.879Z,16.23
2018-04-17T15:44:45.066Z,17.13
2018-04-17T15:47:11.283Z,14.23
2018-04-17T15:49:37.899Z,11.80
2018-04-17T15:52:04.858Z,14.93
2018-04-17T15:54:31.791Z,14.00
2018-04-17T15:56:58.746Z,20.97
2018-04-17T15:59:25.763Z,15.57
2018-04-17T16:01:52.184Z,17.03
2018-04-17T16:04:18.377Z,14.63
2018-04-17T16:06:44.582Z,20.60
2018-04-17T16:09:11.549Z,17.47
2018-04-17T16:11:37.760Z,17.10
2018-04-17T16:14:04.719Z,12.67
2018-04-17T16:16:38.083Z,11.13
2018-04-17T16:19:05.049Z,15.00
2018-04-17T16:21:32.011Z,16.23
2018-04-17T16:23:58.231Z,15.63
2018-04-17T16:26:24.428Z,16.40
2018-04-17T16:28:50.639Z,16.70
2018-04-17T16:31:16.830Z,17.63
2018-04-17T16:33:43.047Z,19.60
2018-04-17T16:36:09.303Z,17.03
2018-04-17T16:38:35.524Z,14.60
2018-04-17T16:41:01.728Z,19.03
2018-04-17T16:43:27.942Z,20.23
2018-04-17T16:45:54.878Z,16.43
2018-04-17T16:48:21.104Z,16.63
2018-04-17T16:50:47.298Z,18.43
2018-04-17T16:53:13.515Z,14.70
2018-04-17T16:55:39.698Z,19.17
2018-04-17T16:58:06.811Z,15.07
2018-04-17T17:00:33.007Z,24.90
2018-04-17T17:02:59.191Z,23.17
2018-04-17T17:05:25.405Z,23.27
2018-04-17T17:07:51.594Z,25.40
2018-04-17T17:10:17.833Z,22.93
2018-04-17T17:12:44.026Z,18.13
2018-04-17T17:15:10.978Z,27.13
2018-04-17T17:17:37.907Z,21.03
2018-04-17T17:20:04.175Z,22.30
2018-04-17T17:22:30.364Z,21.50
2018-04-17T17:24:56.642Z,21.97
2018-04-17T17:27:22.855Z,21.50
2018-04-17T17:29:49.106Z,20.20
2018-04-17T17:32:15.298Z,21.43
2018-04-17T17:34:41.519Z,20.00
2018-04-17T17:37:08.451Z,28.47
2018-04-17T17:39:34.661Z,21.57
2018-04-17T17:42:00.851Z,19.40
2018-04-17T17:44:27.062Z,26.83
2018-04-17T17:46:54.014Z,25.23
2018-04-17T17:49:20.242Z,20.10
2018-04-17T17:51:46.462Z,23.27
2018-04-17T17:54:13.807Z,20.33
2018-04-17T17:56:40.763Z,23.90
2018-04-17T17:59:07.776Z,23.37
2018-04-17T18:01:33.983Z,31.00
2018-04-17T18:04:00.190Z,25.07
2018-04-17T18:06:26.412Z,24.83
2018-04-17T18:08:52.623Z,23.30
2018-04-17T18:11:19.579Z,30.10
2018-04-17T18:13:45.766Z,23.70
2018-04-17T18:16:12.723Z,27.90
2018-04-17T18:18:38.983Z,31.33
2018-04-17T18:21:05.222Z,40.57
2018-04-17T18:23:31.440Z,36.40
2018-04-17T18:25:57.659Z,37.70
2018-04-17T18:28:24.591Z,43.03
2018-04-17T18:30:50.806Z,40.63
2018-04-17T18:33:18.470Z,36.87
2018-04-17T18:35:46.167Z,49.50
2018-04-17T18:38:12.362Z,34.30
2018-04-17T18:40:40.065Z,39.37
2018-04-17T18:43:06.248Z,39.97
2018-04-17T18:45:32.468Z,43.87
2018-04-17T18:47:58.658Z,44.23
2018-04-17T18:50:24.875Z,45.57
2018-04-17T18:52:51.806Z,52.17
2018-04-17T18:55:19.102Z,52.90
2018-04-17T18:57:45.287Z,52.43
2018-04-17T19:00:12.344Z,55.23
2018-04-17T19:02:39.306Z,50.77
2018-04-17T19:05:05.519Z,55.70
2018-04-17T19:07:32.479Z,55.10
2018-04-17T19:09:58.672Z,55.57
2018-04-17T19:12:24.895Z,53.03
2018-04-17T19:14:52.561Z,59.63
2018-04-17T19:17:19.518Z,55.23
2018-04-17T19:19:46.474Z,53.93
2018-04-17T19:22:13.459Z,60.77
2018-04-17T19:24:39.686Z,58.97
2018-04-17T19:27:05.896Z,59.63
2018-04-17T19:29:32.087Z,70.23
2018-04-17T19:31:58.295Z,65.23
2018-04-17T19:34:24.491Z,55.10
2018-04-17T19:36:50.707Z,69.43
2018-04-17T19:39:16.903Z,63.43
2018-04-17T19:41:43.935Z,63.90
2018-04-17T19:44:10.126Z,67.50
2018-04-17T19:46:36.353Z,68.53
2018-04-17T19:49:02.539Z,62.47
2018-04-17T19:51:29.495Z,66.93
2018-04-17T19:53:56.843Z,77.23
2018-04-17T19:56:23.801Z,72.20
2018-04-17T19:58:50.743Z,70.77
2018-04-17T20:01:17.702Z,67.60
2018-04-17T20:03:43.899Z,73.40
2018-04-17T20:06:10.315Z,76.50
2018-04-17T20:08:36.503Z,71.20
2018-04-17T20:11:02.690Z,69.40
2018-04-17T20:13:28.899Z,77.90
2018-04-17T20:15:55.086Z,68.30
2018-04-17T20:18:21.303Z,71.30
2018-04-17T20:20:48.260Z,74.40
2018-04-17T20:23:14.535Z,69.47
2018-04-17T20:25:40.727Z,83.13
2018-04-17T20:28:06.955Z,92.17
2018-04-17T20:30:33.142Z,80.10
2018-04-17T20:33:00.103Z,84.00
2018-04-17T20:35:27.064Z,88.33
2018-04-17T20:37:53.279Z,85.47
2018-04-17T20:40:20.203Z,79.63
2018-04-17T20:42:47.899Z,86.97
2018-04-17T20:45:14.110Z,78.03
2018-04-17T20:47:41.068Z,80.57
2018-04-17T20:50:08.023Z,86.23
2018-04-17T20:52:34.242Z,86.43
2018-04-17T20:55:01.267Z,81.73
2018-04-17T20:57:28.226Z,81.60
2018-04-17T20:59:55.171Z,82.83
2018-04-17T21:02:22.123Z,78.33
2018-04-17T21:04:49.063Z,83.23
2018-04-17T21:07:16.010Z,96.97
2018-04-17T21:09:42.946Z,89.23
2018-04-17T21:12:09.163Z,89.17
2018-04-17T21:14:35.354Z,96.07
2018-04-17T21:17:01.614Z,98.33
2018-04-17T21:19:27.891Z,90.47
2018-04-17T21:21:54.123Z,96.07
2018-04-17T21:24:20.350Z,90.20
2018-04-17T21:26:46.555Z,101.40
2018-04-17T21:29:12.766Z,91.20
2018-04-17T21:31:38.963Z,95.27
2018-04-17T21:34:05.199Z,97.63
2018-04-17T21:36:31.393Z,96.00
2018-04-17T21:38:57.623Z,104.20
2018-04-17T21:41:24.556Z,96.13
2018-04-17T21:43:51.511Z,94.73
2018-04-17T21:46:18.443Z,108.27
2018-04-17T21:48:45.403Z,88.63
2018-04-17T21:51:11.594Z,108.00
2018-04-17T21:53:38.552Z,103.20
2018-04-17T21:56:05.486Z,97.13
2018-04-17T21:58:31.719Z,102.10
2018-04-17T22:00:57.910Z,93.73
2018-04-17T22:03:24.135Z,99.40
2018-04-17T22:05:50.322Z,98.83
2018-04-17T22:08:17.335Z,95.63
2018-04-17T22:10:43.543Z,89.63
2018-04-17T22:13:09.790Z,99.13
2018-04-17T22:15:35.983Z,88.50
2018-04-17T22:18:02.191Z,94.63
2018-04-17T22:20:29.152Z,93.30
2018-04-17T22:22:55.395Z,96.47
2018-04-17T22:25:21.631Z,85.70
2018-04-17T22:27:47.866Z,82.40
2018-04-17T22:30:14.080Z,96.60
2018-04-17T22:32:40.298Z,75.53
2018-04-17T22:35:06.496Z,88.30
2018-04-17T22:37:33.479Z,82.57
2018-04-17T22:39:59.692Z,88.80
2018-04-17T22:42:26.699Z,83.83
2018-04-17T22:44:52.906Z,83.03
2018-04-17T22:47:19.110Z,92.10
2018-04-17T22:49:45.345Z,93.30
2018-04-17T22:52:11.560Z,88.43
2018-04-17T22:54:37.852Z,101.03
2018-04-17T22:57:04.036Z,96.90
2018-04-17T22:59:30.332Z,86.40
2018-04-17T23:01:57.760Z,87.87
2018-04-17T23:04:23.971Z,85.07
2018-04-17T23:06:50.164Z,88.73
2018-04-17T23:09:16.387Z,82.73
2018-04-17T23:11:43.322Z,90.63
2018-04-17T23:14:10.275Z,77.53
2018-04-17T23:16:37.210Z,92.80
2018-04-17T23:19:04.166Z,84.33
2018-04-17T23:21:31.130Z,109.17
2018-04-17T23:23:57.347Z,81.30
2018-04-17T23:26:23.543Z,90.73
2018-04-17T23:28:49.795Z,85.20
2018-04-17T23:31:16.754Z,96.83
2018-04-17T23:33:43.366Z,85.10
2018-04-17T23:36:10.305Z,86.10
2018-04-17T23:38:37.974Z,94.03
2018-04-17T23:41:04.190Z,89.00
2018-04-17T23:43:30.423Z,86.30
2018-04-17T23:45:56.615Z,87.73
2018-04-17T23:48:22.842Z,89.67
2018-04-17T23:50:49.031Z,82.57
2018-04-17T23:53:15.963Z,96.07
2018-04-17T23:55:42.914Z,88.10
2018-04-17T23:58:09.111Z,91.00
